sensor_id;sensor_type;location;lat;lon;timestamp;P1;durP1;ratioP1;P2;durP2;ratioP2
18196;SDS011;9224;52.422;13.024;2022-07-23T00:01:32;7.67;;;6.97;;
18196;SDS011;9224;52.422;13.024;2022-07-23T00:03:59;7.90;;;7.20;;
18196;SDS011;9224;52.422;13.024;2022-07-23T00:06:25;8.83;;;7.77;;
18196;SDS011;9224;52.422;13.024;2022-07-23T00:08:52;7.67;;;6.93;;
18196;SDS011;9224;52.422;13.024;2022-07-23T00:11:19;8.20;;;7.40;;
18196;SDS011;9224;52.422;13.024;2022-07-23T00:13:47;9.70;;;7.10;;
18196;SDS011;9224;52.422;13.024;2022-07-23T00:16:15;7.47;;;6.77;;
18196;SDS011;9224;52.422;13.024;2022-07-23T00:18:42;7.70;;;7.03;;
18196;SDS011;9224;52.422;13.024;2022-07-23T00:21:08;8.47;;;7.60;;
18196;SDS011;9224;52.422;13.024;2022-07-23T00:23:35;8.90;;;7.80;;
18196;SDS011;9224;52.422;13.024;2022-07-23T00:26:01;10.20;;;7.90;;
18196;SDS011;9224;52.422;13.024;2022-07-23T00:28:28;10.33;;;7.93;;
18196;SDS011;9224;52.422;13.024;2022-07-23T00:30:54;8.30;;;7.50;;
18196;SDS011;9224;52.422;13.024;2022-07-23T00:33:22;8.20;;;7.10;;
18196;SDS011;9224;52.422;13.024;2022-07-23T00:35:49;8.00;;;7.00;;
18196;SDS011;9224;52.422;13.024;2022-07-23T00:38:15;8.40;;;7.60;;
18196;SDS011;9224;52.422;13.024;2022-07-23T00:40:42;8.93;;;7.63;;
18196;SDS011;9224;52.422;13.024;2022-07-23T00:43:08;7.97;;;7.27;;
18196;SDS011;9224;52.422;13.024;2022-07-23T00:45:35;7.97;;;7.23;;
18196;SDS011;9224;52.422;13.024;2022-07-23T00:48:01;10.47;;;8.17;;
18196;SDS011;9224;52.422;13.024;2022-07-23T00:50:29;10.17;;;7.83;;
18196;SDS011;9224;52.422;13.024;2022-07-23T00:52:56;8.17;;;7.47;;
18196;SDS011;9224;52.422;13.024;2022-07-23T00:55:22;8.33;;;7.23;;
18196;SDS011;9224;52.422;13.024;2022-07-23T00:57:49;8.63;;;7.83;;
18196;SDS011;9224;52.422;13.024;2022-07-23T01:00:16;7.90;;;7.17;;
18196;SDS011;9224;52.422;13.024;2022-07-23T01:02:43;7.83;;;7.00;;
18196;SDS011;9224;52.422;13.024;2022-07-23T01:05:10;7.63;;;7.03;;
18196;SDS011;9224;52.422;13.024;2022-07-23T01:07:39;8.63;;;7.87;;
18196;SDS011;9224;52.422;13.024;2022-07-23T01:10:06;8.70;;;7.80;;
18196;SDS011;9224;52.422;13.024;2022-07-23T01:12:53;8.60;;;7.70;;
18196;SDS011;9224;52.422;13.024;2022-07-23T01:15:20;8.20;;;7.43;;
18196;SDS011;9224;52.422;13.024;2022-07-23T01:17:46;9.77;;;7.40;;
18196;SDS011;9224;52.422;13.024;2022-07-23T01:20:12;8.93;;;7.30;;
18196;SDS011;9224;52.422;13.024;2022-07-23T01:22:40;7.57;;;6.87;;
18196;SDS011;9224;52.422;13.024;2022-07-23T01:25:07;7.40;;;6.77;;
18196;SDS011;9224;52.422;13.024;2022-07-23T01:27:34;7.53;;;6.83;;
18196;SDS011;9224;52.422;13.024;2022-07-23T01:30:02;8.23;;;6.90;;
18196;SDS011;9224;52.422;13.024;2022-07-23T01:32:29;7.70;;;7.00;;
18196;SDS011;9224;52.422;13.024;2022-07-23T01:34:56;9.82;;;8.63;;
18196;SDS011;9224;52.422;13.024;2022-07-23T01:37:23;9.77;;;7.80;;
18196;SDS011;9224;52.422;13.024;2022-07-23T01:39:50;11.23;;;8.47;;
18196;SDS011;9224;52.422;13.024;2022-07-23T01:42:17;9.30;;;8.33;;
18196;SDS011;9224;52.422;13.024;2022-07-23T01:44:43;9.17;;;8.27;;
18196;SDS011;9224;52.422;13.024;2022-07-23T01:47:10;12.23;;;8.37;;
18196;SDS011;9224;52.422;13.024;2022-07-23T01:49:36;9.67;;;7.57;;
18196;SDS011;9224;52.422;13.024;2022-07-23T01:52:03;8.87;;;7.70;;
18196;SDS011;9224;52.422;13.024;2022-07-23T01:54:34;8.70;;;7.53;;
18196;SDS011;9224;52.422;13.024;2022-07-23T01:57:02;10.17;;;7.87;;
18196;SDS011;9224;52.422;13.024;2022-07-23T01:59:29;11.17;;;7.50;;
18196;SDS011;9224;52.422;13.024;2022-07-23T02:01:56;9.53;;;7.63;;
18196;SDS011;9224;52.422;13.024;2022-07-23T02:04:23;8.27;;;7.23;;
18196;SDS011;9224;52.422;13.024;2022-07-23T02:07:08;10.67;;;8.03;;
18196;SDS011;9224;52.422;13.024;2022-07-23T02:09:53;8.67;;;7.83;;
18196;SDS011;9224;52.422;13.024;2022-07-23T02:12:40;9.13;;;7.83;;
18196;SDS011;9224;52.422;13.024;2022-07-23T02:15:25;9.17;;;7.87;;
18196;SDS011;9224;52.422;13.024;2022-07-23T02:18:12;8.40;;;7.63;;
18196;SDS011;9224;52.422;13.024;2022-07-23T02:20:57;8.40;;;7.60;;
18196;SDS011;9224;52.422;13.024;2022-07-23T02:23:42;10.63;;;7.70;;
18196;SDS011;9224;52.422;13.024;2022-07-23T02:26:28;9.30;;;7.33;;
18196;SDS011;9224;52.422;13.024;2022-07-23T02:29:14;8.03;;;7.20;;
18196;SDS011;9224;52.422;13.024;2022-07-23T02:32:00;7.83;;;7.10;;
18196;SDS011;9224;52.422;13.024;2022-07-23T02:34:45;8.77;;;7.00;;
18196;SDS011;9224;52.422;13.024;2022-07-23T02:37:11;10.07;;;7.13;;
18196;SDS011;9224;52.422;13.024;2022-07-23T02:39:38;7.83;;;7.10;;
18196;SDS011;9224;52.422;13.024;2022-07-23T02:42:05;8.07;;;7.23;;
18196;SDS011;9224;52.422;13.024;2022-07-23T02:44:33;8.63;;;7.13;;
18196;SDS011;9224;52.422;13.024;2022-07-23T02:46:59;9.33;;;6.93;;
18196;SDS011;9224;52.422;13.024;2022-07-23T02:49:26;9.97;;;7.17;;
18196;SDS011;9224;52.422;13.024;2022-07-23T02:51:53;8.13;;;6.97;;
18196;SDS011;9224;52.422;13.024;2022-07-23T02:54:19;9.80;;;6.93;;
18196;SDS011;9224;52.422;13.024;2022-07-23T02:56:46;8.17;;;6.37;;
18196;SDS011;9224;52.422;13.024;2022-07-23T02:59:12;7.63;;;6.90;;
18196;SDS011;9224;52.422;13.024;2022-07-23T03:01:40;8.57;;;6.43;;
18196;SDS011;9224;52.422;13.024;2022-07-23T03:04:07;7.53;;;6.73;;
18196;SDS011;9224;52.422;13.024;2022-07-23T03:06:33;7.57;;;6.60;;
18196;SDS011;9224;52.422;13.024;2022-07-23T03:09:00;8.30;;;6.37;;
18196;SDS011;9224;52.422;13.024;2022-07-23T03:11:27;6.47;;;5.50;;
18196;SDS011;9224;52.422;13.024;2022-07-23T03:13:53;7.17;;;5.80;;
18196;SDS011;9224;52.422;13.024;2022-07-23T03:16:20;9.30;;;6.57;;
18196;SDS011;9224;52.422;13.024;2022-07-23T03:18:47;7.53;;;5.97;;
18196;SDS011;9224;52.422;13.024;2022-07-23T03:21:14;10.17;;;6.07;;
18196;SDS011;9224;52.422;13.024;2022-07-23T03:23:40;6.20;;;5.67;;
18196;SDS011;9224;52.422;13.024;2022-07-23T03:26:07;6.40;;;5.80;;
18196;SDS011;9224;52.422;13.024;2022-07-23T03:28:34;6.93;;;5.57;;
18196;SDS011;9224;52.422;13.024;2022-07-23T03:31:00;7.30;;;5.40;;
18196;SDS011;9224;52.422;13.024;2022-07-23T03:33:27;7.80;;;5.37;;
18196;SDS011;9224;52.422;13.024;2022-07-23T03:35:54;6.83;;;5.23;;
18196;SDS011;9224;52.422;13.024;2022-07-23T03:38:21;5.53;;;5.03;;
18196;SDS011;9224;52.422;13.024;2022-07-23T03:40:47;7.35;;;5.90;;
18196;SDS011;9224;52.422;13.024;2022-07-23T03:43:14;6.57;;;5.90;;
18196;SDS011;9224;52.422;13.024;2022-07-23T03:45:40;7.70;;;6.03;;
18196;SDS011;9224;52.422;13.024;2022-07-23T03:48:07;6.70;;;5.57;;
18196;SDS011;9224;52.422;13.024;2022-07-23T03:50:33;6.13;;;5.53;;
18196;SDS011;9224;52.422;13.024;2022-07-23T03:53:03;7.07;;;6.10;;
18196;SDS011;9224;52.422;13.024;2022-07-23T03:55:30;9.37;;;6.00;;
18196;SDS011;9224;52.422;13.024;2022-07-23T03:57:56;7.00;;;6.30;;
18196;SDS011;9224;52.422;13.024;2022-07-23T04:00:23;10.43;;;6.43;;
18196;SDS011;9224;52.422;13.024;2022-07-23T04:02:49;10.30;;;6.33;;
18196;SDS011;9224;52.422;13.024;2022-07-23T04:05:16;6.83;;;6.20;;
18196;SDS011;9224;52.422;13.024;2022-07-23T04:07:42;7.37;;;6.17;;
18196;SDS011;9224;52.422;13.024;2022-07-23T04:10:10;8.30;;;5.97;;
18196;SDS011;9224;52.422;13.024;2022-07-23T04:12:37;8.33;;;6.27;;
18196;SDS011;9224;52.422;13.024;2022-07-23T04:15:04;6.47;;;5.87;;
18196;SDS011;9224;52.422;13.024;2022-07-23T04:17:32;7.67;;;6.37;;
18196;SDS011;9224;52.422;13.024;2022-07-23T04:19:59;7.67;;;5.63;;
18196;SDS011;9224;52.422;13.024;2022-07-23T04:22:25;9.30;;;6.13;;
18196;SDS011;9224;52.422;13.024;2022-07-23T04:24:52;7.80;;;6.33;;
18196;SDS011;9224;52.422;13.024;2022-07-23T04:27:20;10.30;;;5.77;;
18196;SDS011;9224;52.422;13.024;2022-07-23T04:29:46;9.27;;;5.70;;
18196;SDS011;9224;52.422;13.024;2022-07-23T04:32:13;7.57;;;6.10;;
18196;SDS011;9224;52.422;13.024;2022-07-23T04:34:39;7.23;;;6.47;;
18196;SDS011;9224;52.422;13.024;2022-07-23T04:37:06;7.23;;;5.73;;
18196;SDS011;9224;52.422;13.024;2022-07-23T04:39:32;7.90;;;5.53;;
18196;SDS011;9224;52.422;13.024;2022-07-23T04:41:58;8.37;;;5.90;;
18196;SDS011;9224;52.422;13.024;2022-07-23T04:44:26;7.43;;;5.80;;
18196;SDS011;9224;52.422;13.024;2022-07-23T04:46:53;6.87;;;5.87;;
18196;SDS011;9224;52.422;13.024;2022-07-23T04:49:19;8.03;;;6.20;;
18196;SDS011;9224;52.422;13.024;2022-07-23T04:51:46;9.57;;;6.70;;
18196;SDS011;9224;52.422;13.024;2022-07-23T04:54:13;9.93;;;5.70;;
18196;SDS011;9224;52.422;13.024;2022-07-23T04:56:39;6.33;;;5.70;;
18196;SDS011;9224;52.422;13.024;2022-07-23T04:59:06;6.50;;;5.67;;
18196;SDS011;9224;52.422;13.024;2022-07-23T05:01:34;8.37;;;5.80;;
18196;SDS011;9224;52.422;13.024;2022-07-23T05:04:00;9.70;;;5.80;;
18196;SDS011;9224;52.422;13.024;2022-07-23T05:06:27;6.90;;;5.47;;
18196;SDS011;9224;52.422;13.024;2022-07-23T05:08:53;6.37;;;5.70;;
18196;SDS011;9224;52.422;13.024;2022-07-23T05:11:20;8.03;;;5.53;;
18196;SDS011;9224;52.422;13.024;2022-07-23T05:13:46;9.17;;;5.30;;
18196;SDS011;9224;52.422;13.024;2022-07-23T05:16:13;6.60;;;5.50;;
18196;SDS011;9224;52.422;13.024;2022-07-23T05:18:41;8.57;;;5.47;;
18196;SDS011;9224;52.422;13.024;2022-07-23T05:21:08;10.40;;;6.00;;
18196;SDS011;9224;52.422;13.024;2022-07-23T05:23:34;11.30;;;6.70;;
18196;SDS011;9224;52.422;13.024;2022-07-23T05:26:00;8.43;;;5.60;;
18196;SDS011;9224;52.422;13.024;2022-07-23T05:28:27;6.87;;;6.17;;
18196;SDS011;9224;52.422;13.024;2022-07-23T05:30:54;7.20;;;5.90;;
18196;SDS011;9224;52.422;13.024;2022-07-23T05:33:20;7.40;;;5.70;;
18196;SDS011;9224;52.422;13.024;2022-07-23T05:35:48;6.70;;;5.83;;
18196;SDS011;9224;52.422;13.024;2022-07-23T05:38:14;6.10;;;5.40;;
18196;SDS011;9224;52.422;13.024;2022-07-23T05:40:41;8.23;;;5.93;;
18196;SDS011;9224;52.422;13.024;2022-07-23T05:43:07;9.37;;;5.80;;
18196;SDS011;9224;52.422;13.024;2022-07-23T05:45:34;7.60;;;5.67;;
18196;SDS011;9224;52.422;13.024;2022-07-23T05:48:00;7.03;;;5.30;;
18196;SDS011;9224;52.422;13.024;2022-07-23T05:50:27;6.10;;;5.50;;
18196;SDS011;9224;52.422;13.024;2022-07-23T05:52:55;6.37;;;5.30;;
18196;SDS011;9224;52.422;13.024;2022-07-23T05:55:21;6.20;;;5.57;;
18196;SDS011;9224;52.422;13.024;2022-07-23T05:57:48;9.20;;;5.63;;
18196;SDS011;9224;52.422;13.024;2022-07-23T06:00:14;8.97;;;5.37;;
18196;SDS011;9224;52.422;13.024;2022-07-23T06:02:41;6.93;;;5.80;;
18196;SDS011;9224;52.422;13.024;2022-07-23T06:05:08;7.10;;;5.90;;
18196;SDS011;9224;52.422;13.024;2022-07-23T06:07:35;6.17;;;5.57;;
18196;SDS011;9224;52.422;13.024;2022-07-23T06:10:03;7.67;;;5.80;;
18196;SDS011;9224;52.422;13.024;2022-07-23T06:12:31;6.40;;;5.50;;
18196;SDS011;9224;52.422;13.024;2022-07-23T06:14:57;5.83;;;5.20;;
18196;SDS011;9224;52.422;13.024;2022-07-23T06:17:24;6.00;;;5.37;;
18196;SDS011;9224;52.422;13.024;2022-07-23T06:19:50;6.27;;;5.70;;
18196;SDS011;9224;52.422;13.024;2022-07-23T06:22:17;6.87;;;5.67;;
18196;SDS011;9224;52.422;13.024;2022-07-23T06:24:43;6.63;;;5.33;;
18196;SDS011;9224;52.422;13.024;2022-07-23T06:27:11;6.90;;;5.20;;
18196;SDS011;9224;52.422;13.024;2022-07-23T06:29:37;5.90;;;5.30;;
18196;SDS011;9224;52.422;13.024;2022-07-23T06:32:05;6.27;;;5.77;;
18196;SDS011;9224;52.422;13.024;2022-07-23T06:34:32;7.00;;;5.63;;
18196;SDS011;9224;52.422;13.024;2022-07-23T06:36:58;7.90;;;6.00;;
18196;SDS011;9224;52.422;13.024;2022-07-23T06:39:25;6.60;;;5.97;;
18196;SDS011;9224;52.422;13.024;2022-07-23T06:41:51;7.50;;;6.43;;
18196;SDS011;9224;52.422;13.024;2022-07-23T06:44:19;14.53;;;11.70;;
18196;SDS011;9224;52.422;13.024;2022-07-23T06:46:46;10.53;;;9.40;;
18196;SDS011;9224;52.422;13.024;2022-07-23T06:49:12;8.70;;;7.87;;
18196;SDS011;9224;52.422;13.024;2022-07-23T06:51:39;9.03;;;7.23;;
18196;SDS011;9224;52.422;13.024;2022-07-23T06:54:05;7.17;;;6.43;;
18196;SDS011;9224;52.422;13.024;2022-07-23T06:56:32;8.07;;;6.47;;
18196;SDS011;9224;52.422;13.024;2022-07-23T06:58:58;8.00;;;6.40;;
18196;SDS011;9224;52.422;13.024;2022-07-23T07:01:26;8.77;;;6.53;;
18196;SDS011;9224;52.422;13.024;2022-07-23T07:03:53;8.77;;;7.10;;
18196;SDS011;9224;52.422;13.024;2022-07-23T07:06:19;12.03;;;6.33;;
18196;SDS011;9224;52.422;13.024;2022-07-23T07:08:45;12.43;;;6.60;;
18196;SDS011;9224;52.422;13.024;2022-07-23T07:11:12;7.20;;;6.40;;
18196;SDS011;9224;52.422;13.024;2022-07-23T07:13:38;7.37;;;5.83;;
18196;SDS011;9224;52.422;13.024;2022-07-23T07:16:05;9.03;;;6.70;;
18196;SDS011;9224;52.422;13.024;2022-07-23T07:18:33;9.17;;;6.30;;
18196;SDS011;9224;52.422;13.024;2022-07-23T07:21:00;7.20;;;6.47;;
18196;SDS011;9224;52.422;13.024;2022-07-23T07:23:26;9.53;;;6.83;;
18196;SDS011;9224;52.422;13.024;2022-07-23T07:25:53;7.07;;;6.33;;
18196;SDS011;9224;52.422;13.024;2022-07-23T07:28:19;8.83;;;6.50;;
18196;SDS011;9224;52.422;13.024;2022-07-23T07:30:45;7.73;;;6.73;;
18196;SDS011;9224;52.422;13.024;2022-07-23T07:33:12;7.60;;;6.37;;
18196;SDS011;9224;52.422;13.024;2022-07-23T07:35:40;8.37;;;6.23;;
18196;SDS011;9224;52.422;13.024;2022-07-23T07:38:06;7.00;;;6.37;;
18196;SDS011;9224;52.422;13.024;2022-07-23T07:40:33;10.10;;;7.33;;
18196;SDS011;9224;52.422;13.024;2022-07-23T07:42:59;8.30;;;7.60;;
18196;SDS011;9224;52.422;13.024;2022-07-23T07:45:30;7.67;;;6.93;;
18196;SDS011;9224;52.422;13.024;2022-07-23T07:48:02;8.83;;;6.30;;
18196;SDS011;9224;52.422;13.024;2022-07-23T07:50:29;12.67;;;6.87;;
18196;SDS011;9224;52.422;13.024;2022-07-23T07:52:57;7.87;;;6.80;;
18196;SDS011;9224;52.422;13.024;2022-07-23T07:55:24;7.17;;;6.47;;
18196;SDS011;9224;52.422;13.024;2022-07-23T07:57:52;9.20;;;6.37;;
18196;SDS011;9224;52.422;13.024;2022-07-23T08:00:18;7.37;;;6.03;;
18196;SDS011;9224;52.422;13.024;2022-07-23T08:02:48;8.50;;;7.37;;
18196;SDS011;9224;52.422;13.024;2022-07-23T08:05:18;8.37;;;7.53;;
18196;SDS011;9224;52.422;13.024;2022-07-23T08:07:45;9.07;;;7.17;;
18196;SDS011;9224;52.422;13.024;2022-07-23T08:10:13;8.87;;;7.23;;
18196;SDS011;9224;52.422;13.024;2022-07-23T08:12:40;9.87;;;7.30;;
18196;SDS011;9224;52.422;13.024;2022-07-23T08:15:08;9.30;;;7.47;;
18196;SDS011;9224;52.422;13.024;2022-07-23T08:17:35;9.23;;;6.50;;
18196;SDS011;9224;52.422;13.024;2022-07-23T08:20:02;10.07;;;6.60;;
18196;SDS011;9224;52.422;13.024;2022-07-23T08:22:41;8.43;;;6.43;;
18196;SDS011;9224;52.422;13.024;2022-07-23T08:25:10;8.67;;;6.63;;
18196;SDS011;9224;52.422;13.024;2022-07-23T08:27:38;8.53;;;7.70;;
18196;SDS011;9224;52.422;13.024;2022-07-23T08:30:05;8.57;;;6.87;;
18196;SDS011;9224;52.422;13.024;2022-07-23T08:32:32;7.27;;;6.57;;
18196;SDS011;9224;52.422;13.024;2022-07-23T08:34:59;8.37;;;7.30;;
18196;SDS011;9224;52.422;13.024;2022-07-23T08:37:25;8.57;;;7.40;;
18196;SDS011;9224;52.422;13.024;2022-07-23T08:39:52;8.97;;;6.50;;
18196;SDS011;9224;52.422;13.024;2022-07-23T08:42:20;10.60;;;7.23;;
18196;SDS011;9224;52.422;13.024;2022-07-23T08:44:47;9.17;;;7.90;;
18196;SDS011;9224;52.422;13.024;2022-07-23T08:47:14;8.27;;;7.30;;
18196;SDS011;9224;52.422;13.024;2022-07-23T08:49:40;8.30;;;7.60;;
18196;SDS011;9224;52.422;13.024;2022-07-23T08:52:07;8.40;;;7.40;;
18196;SDS011;9224;52.422;13.024;2022-07-23T08:54:34;7.37;;;6.70;;
18196;SDS011;9224;52.422;13.024;2022-07-23T08:57:01;9.60;;;7.60;;
18196;SDS011;9224;52.422;13.024;2022-07-23T08:59:29;9.20;;;8.13;;
18196;SDS011;9224;52.422;13.024;2022-07-23T09:01:57;8.40;;;7.27;;
18196;SDS011;9224;52.422;13.024;2022-07-23T09:04:25;8.10;;;7.30;;
18196;SDS011;9224;52.422;13.024;2022-07-23T09:06:51;9.20;;;7.03;;
18196;SDS011;9224;52.422;13.024;2022-07-23T09:09:18;8.17;;;7.23;;
18196;SDS011;9224;52.422;13.024;2022-07-23T09:11:45;10.27;;;7.07;;
18196;SDS011;9224;52.422;13.024;2022-07-23T09:14:12;11.13;;;7.20;;
18196;SDS011;9224;52.422;13.024;2022-07-23T09:16:39;10.40;;;7.37;;
18196;SDS011;9224;52.422;13.024;2022-07-23T09:19:06;7.57;;;6.83;;
18196;SDS011;9224;52.422;13.024;2022-07-23T09:21:33;7.90;;;6.87;;
18196;SDS011;9224;52.422;13.024;2022-07-23T09:24:01;9.70;;;7.03;;
18196;SDS011;9224;52.422;13.024;2022-07-23T09:26:30;7.90;;;6.83;;
18196;SDS011;9224;52.422;13.024;2022-07-23T09:28:59;7.17;;;6.47;;
18196;SDS011;9224;52.422;13.024;2022-07-23T09:31:30;8.77;;;7.23;;
18196;SDS011;9224;52.422;13.024;2022-07-23T09:34:09;8.10;;;6.90;;
18196;SDS011;9224;52.422;13.024;2022-07-23T09:36:38;8.67;;;6.73;;
18196;SDS011;9224;52.422;13.024;2022-07-23T09:39:05;7.27;;;6.57;;
18196;SDS011;9224;52.422;13.024;2022-07-23T09:41:36;7.47;;;6.67;;
18196;SDS011;9224;52.422;13.024;2022-07-23T09:44:11;8.40;;;6.83;;
18196;SDS011;9224;52.422;13.024;2022-07-23T09:46:39;10.97;;;7.13;;
18196;SDS011;9224;52.422;13.024;2022-07-23T09:49:12;7.63;;;6.93;;
18196;SDS011;9224;52.422;13.024;2022-07-23T09:51:43;7.90;;;7.20;;
18196;SDS011;9224;52.422;13.024;2022-07-23T09:54:22;7.13;;;6.43;;
18196;SDS011;9224;52.422;13.024;2022-07-23T09:56:51;10.53;;;6.60;;
18196;SDS011;9224;52.422;13.024;2022-07-23T09:59:18;7.83;;;6.67;;
18196;SDS011;9224;52.422;13.024;2022-07-23T10:01:49;7.87;;;6.07;;
18196;SDS011;9224;52.422;13.024;2022-07-23T10:04:18;8.27;;;5.80;;
18196;SDS011;9224;52.422;13.024;2022-07-23T10:06:44;6.90;;;5.90;;
18196;SDS011;9224;52.422;13.024;2022-07-23T10:09:12;6.00;;;5.40;;
18196;SDS011;9224;52.422;13.024;2022-07-23T10:11:38;8.20;;;5.87;;
18196;SDS011;9224;52.422;13.024;2022-07-23T10:14:05;7.83;;;5.93;;
18196;SDS011;9224;52.422;13.024;2022-07-23T10:16:32;7.93;;;5.90;;
18196;SDS011;9224;52.422;13.024;2022-07-23T10:18:58;8.13;;;5.83;;
18196;SDS011;9224;52.422;13.024;2022-07-23T10:21:27;7.90;;;5.90;;
18196;SDS011;9224;52.422;13.024;2022-07-23T10:24:04;7.50;;;5.00;;
18196;SDS011;9224;52.422;13.024;2022-07-23T10:26:36;7.07;;;4.93;;
18196;SDS011;9224;52.422;13.024;2022-07-23T10:29:11;5.77;;;4.50;;
18196;SDS011;9224;52.422;13.024;2022-07-23T10:31:47;7.13;;;4.33;;
18196;SDS011;9224;52.422;13.024;2022-07-23T10:34:19;5.27;;;4.13;;
18196;SDS011;9224;52.422;13.024;2022-07-23T10:36:50;4.77;;;4.07;;
18196;SDS011;9224;52.422;13.024;2022-07-23T10:39:19;5.63;;;4.43;;
18196;SDS011;9224;52.422;13.024;2022-07-23T10:41:48;5.00;;;4.47;;
18196;SDS011;9224;52.422;13.024;2022-07-23T10:44:16;5.67;;;4.67;;
18196;SDS011;9224;52.422;13.024;2022-07-23T10:46:54;4.50;;;4.10;;
18196;SDS011;9224;52.422;13.024;2022-07-23T10:49:41;4.33;;;4.00;;
18196;SDS011;9224;52.422;13.024;2022-07-23T10:52:22;4.50;;;4.10;;
18196;SDS011;9224;52.422;13.024;2022-07-23T10:54:51;4.87;;;4.43;;
18196;SDS011;9224;52.422;13.024;2022-07-23T10:57:19;5.10;;;4.60;;
18196;SDS011;9224;52.422;13.024;2022-07-23T11:02:40;6.07;;;4.50;;
18196;SDS011;9224;52.422;13.024;2022-07-23T11:05:08;6.33;;;4.67;;
18196;SDS011;9224;52.422;13.024;2022-07-23T11:08:09;7.00;;;4.67;;
18196;SDS011;9224;52.422;13.024;2022-07-23T11:10:54;6.50;;;4.50;;
18196;SDS011;9224;52.422;13.024;2022-07-23T11:13:41;6.93;;;4.30;;
18196;SDS011;9224;52.422;13.024;2022-07-23T11:16:20;5.33;;;4.30;;
18196;SDS011;9224;52.422;13.024;2022-07-23T11:21:43;5.30;;;4.30;;
18196;SDS011;9224;52.422;13.024;2022-07-23T11:24:17;5.10;;;4.70;;
18196;SDS011;9224;52.422;13.024;2022-07-23T11:26:49;6.27;;;4.80;;
18196;SDS011;9224;52.422;13.024;2022-07-23T11:32:07;4.67;;;4.13;;
18196;SDS011;9224;52.422;13.024;2022-07-23T11:34:35;5.87;;;4.70;;
18196;SDS011;9224;52.422;13.024;2022-07-23T11:37:03;8.40;;;4.50;;
18196;SDS011;9224;52.422;13.024;2022-07-23T11:39:32;4.90;;;4.40;;
18196;SDS011;9224;52.422;13.024;2022-07-23T11:42:00;7.17;;;5.07;;
18196;SDS011;9224;52.422;13.024;2022-07-23T11:44:30;6.80;;;4.90;;
18196;SDS011;9224;52.422;13.024;2022-07-23T11:46:59;5.17;;;4.67;;
18196;SDS011;9224;52.422;13.024;2022-07-23T11:49:26;6.27;;;4.50;;
18196;SDS011;9224;52.422;13.024;2022-07-23T11:54:48;6.33;;;4.73;;
18196;SDS011;9224;52.422;13.024;2022-07-23T11:57:15;4.70;;;4.10;;
18196;SDS011;9224;52.422;13.024;2022-07-23T11:59:42;6.00;;;5.13;;
18196;SDS011;9224;52.422;13.024;2022-07-23T12:02:09;4.50;;;4.10;;
18196;SDS011;9224;52.422;13.024;2022-07-23T12:04:39;7.47;;;4.97;;
18196;SDS011;9224;52.422;13.024;2022-07-23T12:09:53;5.03;;;4.60;;
18196;SDS011;9224;52.422;13.024;2022-07-23T12:12:19;6.80;;;4.60;;
18196;SDS011;9224;52.422;13.024;2022-07-23T12:14:49;5.40;;;4.50;;
18196;SDS011;9224;52.422;13.024;2022-07-23T12:17:16;6.87;;;4.40;;
18196;SDS011;9224;52.422;13.024;2022-07-23T12:19:43;5.27;;;4.60;;
18196;SDS011;9224;52.422;13.024;2022-07-23T12:22:10;5.87;;;4.60;;
18196;SDS011;9224;52.422;13.024;2022-07-23T12:27:26;3.93;;;3.63;;
18196;SDS011;9224;52.422;13.024;2022-07-23T12:29:53;5.20;;;3.90;;
18196;SDS011;9224;52.422;13.024;2022-07-23T12:32:20;4.43;;;3.73;;
18196;SDS011;9224;52.422;13.024;2022-07-23T12:34:48;5.33;;;3.93;;
18196;SDS011;9224;52.422;13.024;2022-07-23T12:37:26;6.80;;;3.97;;
18196;SDS011;9224;52.422;13.024;2022-07-23T12:39:53;4.37;;;3.97;;
18196;SDS011;9224;52.422;13.024;2022-07-23T12:42:21;5.83;;;3.80;;
18196;SDS011;9224;52.422;13.024;2022-07-23T12:45:08;4.70;;;3.70;;
18196;SDS011;9224;52.422;13.024;2022-07-23T12:47:59;5.70;;;4.10;;
18196;SDS011;9224;52.422;13.024;2022-07-23T12:50:42;5.87;;;3.73;;
18196;SDS011;9224;52.422;13.024;2022-07-23T12:53:11;4.53;;;3.57;;
18196;SDS011;9224;52.422;13.024;2022-07-23T12:55:40;4.17;;;3.77;;
18196;SDS011;9224;52.422;13.024;2022-07-23T12:58:10;5.70;;;3.47;;
18196;SDS011;9224;52.422;13.024;2022-07-23T13:00:51;4.47;;;3.30;;
18196;SDS011;9224;52.422;13.024;2022-07-23T13:03:29;3.93;;;3.63;;
18196;SDS011;9224;52.422;13.024;2022-07-23T13:06:01;3.77;;;3.33;;
18196;SDS011;9224;52.422;13.024;2022-07-23T13:08:29;4.37;;;3.97;;
18196;SDS011;9224;52.422;13.024;2022-07-23T13:10:57;4.67;;;3.63;;
18196;SDS011;9224;52.422;13.024;2022-07-23T13:13:25;4.37;;;3.70;;
18196;SDS011;9224;52.422;13.024;2022-07-23T13:15:53;4.43;;;3.50;;
18196;SDS011;9224;52.422;13.024;2022-07-23T13:18:20;4.40;;;3.73;;
18196;SDS011;9224;52.422;13.024;2022-07-23T13:20:47;4.63;;;3.20;;
18196;SDS011;9224;52.422;13.024;2022-07-23T13:23:14;3.43;;;3.20;;
18196;SDS011;9224;52.422;13.024;2022-07-23T13:25:41;5.47;;;3.20;;
18196;SDS011;9224;52.422;13.024;2022-07-23T13:28:08;3.63;;;3.33;;
18196;SDS011;9224;52.422;13.024;2022-07-23T13:30:36;3.37;;;3.03;;
18196;SDS011;9224;52.422;13.024;2022-07-23T13:33:03;3.10;;;2.80;;
18196;SDS011;9224;52.422;13.024;2022-07-23T13:35:30;3.93;;;3.00;;
18196;SDS011;9224;52.422;13.024;2022-07-23T13:37:56;5.27;;;3.20;;
18196;SDS011;9224;52.422;13.024;2022-07-23T13:40:23;3.47;;;3.17;;
18196;SDS011;9224;52.422;13.024;2022-07-23T13:42:49;3.23;;;3.03;;
18196;SDS011;9224;52.422;13.024;2022-07-23T13:45:16;3.93;;;3.10;;
18196;SDS011;9224;52.422;13.024;2022-07-23T13:47:44;5.13;;;3.03;;
18196;SDS011;9224;52.422;13.024;2022-07-23T13:50:10;3.43;;;3.10;;
18196;SDS011;9224;52.422;13.024;2022-07-23T13:52:37;4.00;;;3.20;;
18196;SDS011;9224;52.422;13.024;2022-07-23T13:55:04;3.67;;;3.23;;
18196;SDS011;9224;52.422;13.024;2022-07-23T13:57:32;4.17;;;2.70;;
18196;SDS011;9224;52.422;13.024;2022-07-23T13:59:59;3.43;;;2.87;;
18196;SDS011;9224;52.422;13.024;2022-07-23T14:02:25;3.17;;;2.67;;
18196;SDS011;9224;52.422;13.024;2022-07-23T14:04:53;3.03;;;2.70;;
18196;SDS011;9224;52.422;13.024;2022-07-23T14:07:20;2.67;;;2.47;;
18196;SDS011;9224;52.422;13.024;2022-07-23T14:09:48;3.33;;;2.93;;
18196;SDS011;9224;52.422;13.024;2022-07-23T14:12:14;2.77;;;2.50;;
18196;SDS011;9224;52.422;13.024;2022-07-23T14:14:41;3.10;;;2.80;;
18196;SDS011;9224;52.422;13.024;2022-07-23T14:17:08;3.30;;;3.00;;
18196;SDS011;9224;52.422;13.024;2022-07-23T14:19:34;3.30;;;2.63;;
18196;SDS011;9224;52.422;13.024;2022-07-23T14:22:02;2.87;;;2.67;;
18196;SDS011;9224;52.422;13.024;2022-07-23T14:24:29;3.73;;;2.90;;
18196;SDS011;9224;52.422;13.024;2022-07-23T14:26:55;4.43;;;2.80;;
18196;SDS011;9224;52.422;13.024;2022-07-23T14:29:22;3.73;;;2.83;;
18196;SDS011;9224;52.422;13.024;2022-07-23T14:31:48;4.80;;;2.80;;
18196;SDS011;9224;52.422;13.024;2022-07-23T14:34:15;2.70;;;2.50;;
18196;SDS011;9224;52.422;13.024;2022-07-23T14:36:41;3.37;;;2.60;;
18196;SDS011;9224;52.422;13.024;2022-07-23T14:39:09;3.17;;;2.27;;
18196;SDS011;9224;52.422;13.024;2022-07-23T14:41:37;2.70;;;2.50;;
18196;SDS011;9224;52.422;13.024;2022-07-23T14:44:03;2.80;;;2.60;;
18196;SDS011;9224;52.422;13.024;2022-07-23T14:46:30;3.37;;;2.67;;
18196;SDS011;9224;52.422;13.024;2022-07-23T14:48:57;3.63;;;2.40;;
18196;SDS011;9224;52.422;13.024;2022-07-23T14:51:23;2.43;;;2.23;;
18196;SDS011;9224;52.422;13.024;2022-07-23T14:53:50;3.53;;;2.63;;
18196;SDS011;9224;52.422;13.024;2022-07-23T14:56:18;3.07;;;2.40;;
18196;SDS011;9224;52.422;13.024;2022-07-23T14:58:44;3.13;;;2.70;;
18196;SDS011;9224;52.422;13.024;2022-07-23T15:01:11;2.60;;;2.40;;
18196;SDS011;9224;52.422;13.024;2022-07-23T15:03:37;3.00;;;2.50;;
18196;SDS011;9224;52.422;13.024;2022-07-23T15:06:04;2.70;;;2.40;;
18196;SDS011;9224;52.422;13.024;2022-07-23T15:08:31;3.00;;;2.30;;
18196;SDS011;9224;52.422;13.024;2022-07-23T15:10:57;2.83;;;2.50;;